sensor_id;sensor_type;location;lat;lon;timestamp;P1;durP1;ratioP1;P2;durP2;ratioP2
53666;SDS011;39568;51.026;5.468;2023-06-24T00:01:41;18.17;;;9.57;;
53666;SDS011;39568;51.026;5.468;2023-06-24T00:04:07;14.27;;;10.25;;
53666;SDS011;39568;51.026;5.468;2023-06-24T00:06:35;15.30;;;10.32;;
53666;SDS011;39568;51.026;5.468;2023-06-24T00:09:04;12.80;;;10.10;;
53666;SDS011;39568;51.026;5.468;2023-06-24T00:11:33;16.13;;;10.88;;
53666;SDS011;39568;51.026;5.468;2023-06-24T00:14:00;11.27;;;10.05;;
53666;SDS011;39568;51.026;5.468;2023-06-24T00:16:33;14.13;;;10.68;;
53666;SDS011;39568;51.026;5.468;2023-06-24T00:19:03;16.30;;;9.73;;
53666;SDS011;39568;51.026;5.468;2023-06-24T00:21:29;15.10;;;10.25;;
53666;SDS011;39568;51.026;5.468;2023-06-24T00:23:56;22.80;;;10.80;;
53666;SDS011;39568;51.026;5.468;2023-06-24T00:26:23;16.65;;;10.80;;
53666;SDS011;39568;51.026;5.468;2023-06-24T00:28:52;15.52;;;11.32;;
53666;SDS011;39568;51.026;5.468;2023-06-24T00:31:19;15.63;;;11.13;;
53666;SDS011;39568;51.026;5.468;2023-06-24T00:33:49;24.05;;;11.63;;
53666;SDS011;39568;51.026;5.468;2023-06-24T00:36:18;19.10;;;11.70;;
53666;SDS011;39568;51.026;5.468;2023-06-24T00:38:45;22.30;;;11.60;;
53666;SDS011;39568;51.026;5.468;2023-06-24T00:41:16;16.48;;;12.18;;
53666;SDS011;39568;51.026;5.468;2023-06-24T00:43:44;13.40;;;10.70;;
53666;SDS011;39568;51.026;5.468;2023-06-24T00:46:11;13.95;;;11.35;;
53666;SDS011;39568;51.026;5.468;2023-06-24T00:48:40;17.40;;;12.40;;
53666;SDS011;39568;51.026;5.468;2023-06-24T00:51:07;21.55;;;12.52;;
53666;SDS011;39568;51.026;5.468;2023-06-24T00:53:39;13.73;;;11.63;;
53666;SDS011;39568;51.026;5.468;2023-06-24T00:56:06;13.65;;;11.00;;
53666;SDS011;39568;51.026;5.468;2023-06-24T00:58:34;10.68;;;9.70;;
53666;SDS011;39568;51.026;5.468;2023-06-24T01:01:04;13.88;;;10.43;;
53666;SDS011;39568;51.026;5.468;2023-06-24T01:03:33;13.95;;;10.40;;
53666;SDS011;39568;51.026;5.468;2023-06-24T01:06:04;14.27;;;11.27;;
53666;SDS011;39568;51.026;5.468;2023-06-24T01:08:31;12.75;;;11.23;;
53666;SDS011;39568;51.026;5.468;2023-06-24T01:11:01;14.80;;;9.68;;
53666;SDS011;39568;51.026;5.468;2023-06-24T01:13:28;12.70;;;10.45;;
53666;SDS011;39568;51.026;5.468;2023-06-24T01:15:57;15.63;;;10.07;;
53666;SDS011;39568;51.026;5.468;2023-06-24T01:21:03;14.73;;;11.57;;
53666;SDS011;39568;51.026;5.468;2023-06-24T01:29:34;10.60;;;9.57;;
53666;SDS011;39568;51.026;5.468;2023-06-24T01:32:25;13.18;;;9.77;;
53666;SDS011;39568;51.026;5.468;2023-06-24T01:35:00;18.15;;;10.70;;
53666;SDS011;39568;51.026;5.468;2023-06-24T01:37:33;11.93;;;9.32;;
53666;SDS011;39568;51.026;5.468;2023-06-24T01:40:04;11.85;;;8.98;;
53666;SDS011;39568;51.026;5.468;2023-06-24T01:42:36;18.83;;;11.25;;
53666;SDS011;39568;51.026;5.468;2023-06-24T01:45:05;17.17;;;11.18;;
53666;SDS011;39568;51.026;5.468;2023-06-24T01:47:36;11.60;;;10.40;;
53666;SDS011;39568;51.026;5.468;2023-06-24T01:50:05;17.15;;;11.20;;
53666;SDS011;39568;51.026;5.468;2023-06-24T01:52:36;20.20;;;12.07;;
53666;SDS011;39568;51.026;5.468;2023-06-24T01:57:35;12.18;;;10.98;;
53666;SDS011;39568;51.026;5.468;2023-06-24T02:00:06;15.05;;;11.27;;
53666;SDS011;39568;51.026;5.468;2023-06-24T02:02:37;13.05;;;10.88;;
53666;SDS011;39568;51.026;5.468;2023-06-24T02:05:05;13.63;;;11.32;;
53666;SDS011;39568;51.026;5.468;2023-06-24T02:07:35;13.98;;;11.80;;
53666;SDS011;39568;51.026;5.468;2023-06-24T02:10:05;13.67;;;11.87;;
53666;SDS011;39568;51.026;5.468;2023-06-24T02:12:34;15.30;;;12.85;;
53666;SDS011;39568;51.026;5.468;2023-06-24T02:15:01;15.05;;;13.35;;
53666;SDS011;39568;51.026;5.468;2023-06-24T02:17:32;21.13;;;15.15;;
53666;SDS011;39568;51.026;5.468;2023-06-24T02:20:01;23.60;;;15.70;;
53666;SDS011;39568;51.026;5.468;2023-06-24T02:22:30;23.50;;;15.90;;
53666;SDS011;39568;51.026;5.468;2023-06-24T02:24:57;17.50;;;15.63;;
53666;SDS011;39568;51.026;5.468;2023-06-24T02:27:24;17.08;;;14.60;;
53666;SDS011;39568;51.026;5.468;2023-06-24T02:29:52;17.60;;;15.43;;
53666;SDS011;39568;51.026;5.468;2023-06-24T02:32:21;18.02;;;16.13;;
53666;SDS011;39568;51.026;5.468;2023-06-24T02:34:48;26.73;;;17.00;;
53666;SDS011;39568;51.026;5.468;2023-06-24T02:37:19;24.17;;;19.10;;
53666;SDS011;39568;51.026;5.468;2023-06-24T02:39:46;29.88;;;18.00;;
53666;SDS011;39568;51.026;5.468;2023-06-24T02:42:14;30.88;;;21.25;;
53666;SDS011;39568;51.026;5.468;2023-06-24T02:44:41;25.58;;;18.75;;
53666;SDS011;39568;51.026;5.468;2023-06-24T02:47:09;22.83;;;18.20;;
53666;SDS011;39568;51.026;5.468;2023-06-24T02:49:41;28.77;;;21.45;;
53666;SDS011;39568;51.026;5.468;2023-06-24T02:52:11;32.40;;;21.27;;
53666;SDS011;39568;51.026;5.468;2023-06-24T02:54:39;30.60;;;22.65;;
53666;SDS011;39568;51.026;5.468;2023-06-24T02:57:07;35.47;;;23.63;;
53666;SDS011;39568;51.026;5.468;2023-06-24T02:59:34;32.53;;;22.65;;
53666;SDS011;39568;51.026;5.468;2023-06-24T03:02:04;28.42;;;21.98;;
53666;SDS011;39568;51.026;5.468;2023-06-24T03:04:32;23.98;;;21.45;;
53666;SDS011;39568;51.026;5.468;2023-06-24T03:06:59;25.02;;;21.08;;
53666;SDS011;39568;51.026;5.468;2023-06-24T03:09:27;25.35;;;22.05;;
53666;SDS011;39568;51.026;5.468;2023-06-24T03:11:55;26.30;;;21.25;;
53666;SDS011;39568;51.026;5.468;2023-06-24T03:14:22;29.77;;;21.35;;
53666;SDS011;39568;51.026;5.468;2023-06-24T03:16:49;28.00;;;22.17;;
53666;SDS011;39568;51.026;5.468;2023-06-24T03:19:15;24.20;;;20.92;;
53666;SDS011;39568;51.026;5.468;2023-06-24T03:21:42;26.45;;;21.08;;
53666;SDS011;39568;51.026;5.468;2023-06-24T03:24:16;28.50;;;22.33;;
53666;SDS011;39568;51.026;5.468;2023-06-24T03:26:42;29.10;;;21.00;;
53666;SDS011;39568;51.026;5.468;2023-06-24T03:29:14;25.75;;;20.30;;
53666;SDS011;39568;51.026;5.468;2023-06-24T03:31:41;26.38;;;21.63;;
53666;SDS011;39568;51.026;5.468;2023-06-24T03:34:09;32.05;;;22.33;;
53666;SDS011;39568;51.026;5.468;2023-06-24T03:36:35;31.15;;;23.58;;
53666;SDS011;39568;51.026;5.468;2023-06-24T03:39:04;29.55;;;22.63;;
53666;SDS011;39568;51.026;5.468;2023-06-24T03:41:30;29.38;;;21.77;;
53666;SDS011;39568;51.026;5.468;2023-06-24T03:43:59;30.77;;;24.95;;
53666;SDS011;39568;51.026;5.468;2023-06-24T03:46:28;34.63;;;24.25;;
53666;SDS011;39568;51.026;5.468;2023-06-24T03:48:58;41.83;;;25.50;;
53666;SDS011;39568;51.026;5.468;2023-06-24T03:51:25;35.00;;;23.17;;
53666;SDS011;39568;51.026;5.468;2023-06-24T03:53:53;32.85;;;23.90;;
53666;SDS011;39568;51.026;5.468;2023-06-24T03:56:20;41.70;;;25.83;;
53666;SDS011;39568;51.026;5.468;2023-06-24T03:58:46;39.10;;;24.73;;
53666;SDS011;39568;51.026;5.468;2023-06-24T04:01:15;28.30;;;24.02;;
53666;SDS011;39568;51.026;5.468;2023-06-24T04:03:45;34.22;;;23.52;;
53666;SDS011;39568;51.026;5.468;2023-06-24T04:06:12;31.10;;;23.20;;
53666;SDS011;39568;51.026;5.468;2023-06-24T04:08:39;38.55;;;26.20;;
53666;SDS011;39568;51.026;5.468;2023-06-24T04:11:08;36.00;;;23.88;;
53666;SDS011;39568;51.026;5.468;2023-06-24T04:13:38;40.63;;;25.77;;
53666;SDS011;39568;51.026;5.468;2023-06-24T04:16:05;33.15;;;23.02;;
53666;SDS011;39568;51.026;5.468;2023-06-24T04:18:32;27.90;;;19.98;;
53666;SDS011;39568;51.026;5.468;2023-06-24T04:21:05;27.98;;;19.92;;
53666;SDS011;39568;51.026;5.468;2023-06-24T04:23:32;33.50;;;20.67;;
53666;SDS011;39568;51.026;5.468;2023-06-24T04:26:00;23.85;;;17.75;;
53666;SDS011;39568;51.026;5.468;2023-06-24T04:28:27;24.90;;;18.92;;
53666;SDS011;39568;51.026;5.468;2023-06-24T04:30:54;29.10;;;18.60;;
53666;SDS011;39568;51.026;5.468;2023-06-24T04:33:24;28.38;;;20.05;;
53666;SDS011;39568;51.026;5.468;2023-06-24T04:35:51;24.35;;;18.77;;
53666;SDS011;39568;51.026;5.468;2023-06-24T04:38:19;25.92;;;17.73;;
53666;SDS011;39568;51.026;5.468;2023-06-24T04:40:46;20.92;;;16.67;;
53666;SDS011;39568;51.026;5.468;2023-06-24T04:43:13;21.23;;;16.60;;
53666;SDS011;39568;51.026;5.468;2023-06-24T04:45:44;25.27;;;17.33;;
53666;SDS011;39568;51.026;5.468;2023-06-24T04:48:14;20.48;;;16.10;;
53666;SDS011;39568;51.026;5.468;2023-06-24T04:50:45;23.98;;;16.17;;
53666;SDS011;39568;51.026;5.468;2023-06-24T04:53:12;26.88;;;15.95;;
53666;SDS011;39568;51.026;5.468;2023-06-24T04:55:40;23.17;;;16.65;;
53666;SDS011;39568;51.026;5.468;2023-06-24T04:58:07;16.70;;;14.40;;
53666;SDS011;39568;51.026;5.468;2023-06-24T05:00:42;21.73;;;16.13;;
53666;SDS011;39568;51.026;5.468;2023-06-24T05:03:12;33.90;;;16.03;;
53666;SDS011;39568;51.026;5.468;2023-06-24T05:05:39;18.67;;;13.88;;
53666;SDS011;39568;51.026;5.468;2023-06-24T05:08:05;29.23;;;17.45;;
53666;SDS011;39568;51.026;5.468;2023-06-24T05:10:32;16.20;;;13.63;;
53666;SDS011;39568;51.026;5.468;2023-06-24T05:13:00;19.92;;;15.15;;
53666;SDS011;39568;51.026;5.468;2023-06-24T05:15:29;19.00;;;12.80;;
53666;SDS011;39568;51.026;5.468;2023-06-24T05:17:55;19.05;;;13.55;;
53666;SDS011;39568;51.026;5.468;2023-06-24T05:20:24;18.92;;;13.07;;
53666;SDS011;39568;51.026;5.468;2023-06-24T05:22:52;18.52;;;13.30;;
53666;SDS011;39568;51.026;5.468;2023-06-24T05:25:19;17.80;;;13.50;;
53666;SDS011;39568;51.026;5.468;2023-06-24T05:27:45;18.35;;;12.55;;
53666;SDS011;39568;51.026;5.468;2023-06-24T05:30:13;13.55;;;10.45;;
53666;SDS011;39568;51.026;5.468;2023-06-24T05:32:41;17.98;;;12.15;;
53666;SDS011;39568;51.026;5.468;2023-06-24T05:35:10;16.92;;;11.07;;
53666;SDS011;39568;51.026;5.468;2023-06-24T05:37:37;15.15;;;12.65;;
53666;SDS011;39568;51.026;5.468;2023-06-24T05:40:05;16.48;;;11.65;;
53666;SDS011;39568;51.026;5.468;2023-06-24T05:42:34;17.67;;;12.00;;
53666;SDS011;39568;51.026;5.468;2023-06-24T05:45:01;11.00;;;9.35;;
53666;SDS011;39568;51.026;5.468;2023-06-24T05:47:29;14.43;;;9.40;;
53666;SDS011;39568;51.026;5.468;2023-06-24T05:49:56;13.25;;;8.48;;
53666;SDS011;39568;51.026;5.468;2023-06-24T05:52:23;14.07;;;8.57;;
53666;SDS011;39568;51.026;5.468;2023-06-24T05:54:50;10.25;;;9.25;;
53666;SDS011;39568;51.026;5.468;2023-06-24T05:57:16;16.80;;;9.25;;
53666;SDS011;39568;51.026;5.468;2023-06-24T05:59:43;10.52;;;8.38;;
53666;SDS011;39568;51.026;5.468;2023-06-24T06:02:10;11.20;;;7.80;;
53666;SDS011;39568;51.026;5.468;2023-06-24T06:04:42;11.30;;;7.50;;
53666;SDS011;39568;51.026;5.468;2023-06-24T06:07:09;9.77;;;7.68;;
53666;SDS011;39568;51.026;5.468;2023-06-24T06:09:36;9.40;;;8.20;;
53666;SDS011;39568;51.026;5.468;2023-06-24T06:12:06;9.05;;;8.10;;
53666;SDS011;39568;51.026;5.468;2023-06-24T06:14:33;15.40;;;7.35;;
53666;SDS011;39568;51.026;5.468;2023-06-24T06:17:00;9.65;;;8.07;;
53666;SDS011;39568;51.026;5.468;2023-06-24T06:19:26;10.23;;;7.40;;
53666;SDS011;39568;51.026;5.468;2023-06-24T06:21:54;6.63;;;5.88;;
53666;SDS011;39568;51.026;5.468;2023-06-24T06:24:23;12.32;;;6.65;;
53666;SDS011;39568;51.026;5.468;2023-06-24T06:26:53;8.07;;;6.57;;
53666;SDS011;39568;51.026;5.468;2023-06-24T06:29:25;9.75;;;6.72;;
53666;SDS011;39568;51.026;5.468;2023-06-24T06:31:54;9.80;;;7.07;;
53666;SDS011;39568;51.026;5.468;2023-06-24T06:34:22;6.90;;;5.82;;
53666;SDS011;39568;51.026;5.468;2023-06-24T06:36:48;5.07;;;4.70;;
53666;SDS011;39568;51.026;5.468;2023-06-24T06:39:17;5.88;;;4.30;;
53666;SDS011;39568;51.026;5.468;2023-06-24T06:41:43;10.05;;;4.10;;
53666;SDS011;39568;51.026;5.468;2023-06-24T06:44:10;4.53;;;3.50;;
53666;SDS011;39568;51.026;5.468;2023-06-24T06:46:39;5.25;;;4.20;;
53666;SDS011;39568;51.026;5.468;2023-06-24T06:49:06;7.75;;;4.47;;
53666;SDS011;39568;51.026;5.468;2023-06-24T06:51:34;10.80;;;3.72;;
53666;SDS011;39568;51.026;5.468;2023-06-24T06:54:01;7.28;;;2.78;;
53666;SDS011;39568;51.026;5.468;2023-06-24T06:56:29;6.32;;;2.42;;
53666;SDS011;39568;51.026;5.468;2023-06-24T06:58:56;3.95;;;2.60;;
53666;SDS011;39568;51.026;5.468;2023-06-24T07:01:23;3.78;;;3.53;;
53666;SDS011;39568;51.026;5.468;2023-06-24T07:03:50;3.85;;;3.35;;
53666;SDS011;39568;51.026;5.468;2023-06-24T07:06:19;2.58;;;2.38;;
53666;SDS011;39568;51.026;5.468;2023-06-24T07:08:46;3.70;;;3.40;;
53666;SDS011;39568;51.026;5.468;2023-06-24T07:11:12;12.93;;;2.85;;
53666;SDS011;39568;51.026;5.468;2023-06-24T07:13:41;19.13;;;3.55;;
53666;SDS011;39568;51.026;5.468;2023-06-24T07:16:07;3.17;;;1.95;;
53666;SDS011;39568;51.026;5.468;2023-06-24T07:18:35;3.35;;;3.10;;
53666;SDS011;39568;51.026;5.468;2023-06-24T07:21:02;6.22;;;2.33;;
53666;SDS011;39568;51.026;5.468;2023-06-24T07:23:29;5.75;;;2.42;;
53666;SDS011;39568;51.026;5.468;2023-06-24T07:25:57;2.80;;;2.00;;
53666;SDS011;39568;51.026;5.468;2023-06-24T07:28:26;6.28;;;3.17;;
53666;SDS011;39568;51.026;5.468;2023-06-24T07:30:54;6.90;;;3.10;;
53666;SDS011;39568;51.026;5.468;2023-06-24T07:33:21;2.83;;;2.28;;
53666;SDS011;39568;51.026;5.468;2023-06-24T07:35:47;2.40;;;2.20;;
53666;SDS011;39568;51.026;5.468;2023-06-24T07:38:14;2.35;;;1.95;;
53666;SDS011;39568;51.026;5.468;2023-06-24T07:40:41;2.40;;;2.25;;
53666;SDS011;39568;51.026;5.468;2023-06-24T07:43:07;9.75;;;2.88;;
53666;SDS011;39568;51.026;5.468;2023-06-24T07:45:34;6.85;;;2.55;;
53666;SDS011;39568;51.026;5.468;2023-06-24T07:48:02;4.93;;;2.08;;
53666;SDS011;39568;51.026;5.468;2023-06-24T07:52:58;3.05;;;2.53;;
53666;SDS011;39568;51.026;5.468;2023-06-24T07:55:30;2.22;;;1.73;;
53666;SDS011;39568;51.026;5.468;2023-06-24T07:58:00;3.95;;;2.25;;
53666;SDS011;39568;51.026;5.468;2023-06-24T08:00:27;2.40;;;1.75;;
53666;SDS011;39568;51.026;5.468;2023-06-24T08:02:54;3.88;;;1.83;;
53666;SDS011;39568;51.026;5.468;2023-06-24T08:05:22;3.00;;;2.40;;
53666;SDS011;39568;51.026;5.468;2023-06-24T08:07:51;3.05;;;2.28;;
53666;SDS011;39568;51.026;5.468;2023-06-24T08:10:18;6.30;;;2.47;;
53666;SDS011;39568;51.026;5.468;2023-06-24T08:12:46;2.55;;;2.05;;
53666;SDS011;39568;51.026;5.468;2023-06-24T08:15:17;2.95;;;2.03;;
53666;SDS011;39568;51.026;5.468;2023-06-24T08:17:58;2.83;;;1.70;;
53666;SDS011;39568;51.026;5.468;2023-06-24T08:20:29;2.08;;;1.70;;
53666;SDS011;39568;51.026;5.468;2023-06-24T08:22:55;3.50;;;2.47;;
53666;SDS011;39568;51.026;5.468;2023-06-24T08:25:24;4.30;;;2.10;;
53666;SDS011;39568;51.026;5.468;2023-06-24T08:27:52;2.50;;;1.98;;
53666;SDS011;39568;51.026;5.468;2023-06-24T08:30:19;4.45;;;1.95;;
53666;SDS011;39568;51.026;5.468;2023-06-24T08:32:46;4.47;;;2.10;;
53666;SDS011;39568;51.026;5.468;2023-06-24T08:35:12;6.68;;;2.60;;
53666;SDS011;39568;51.026;5.468;2023-06-24T08:37:42;3.25;;;1.90;;
53666;SDS011;39568;51.026;5.468;2023-06-24T08:40:11;2.65;;;1.55;;
53666;SDS011;39568;51.026;5.468;2023-06-24T08:42:38;1.73;;;1.52;;
53666;SDS011;39568;51.026;5.468;2023-06-24T08:45:08;1.75;;;1.65;;
53666;SDS011;39568;51.026;5.468;2023-06-24T08:47:35;2.00;;;1.80;;
53666;SDS011;39568;51.026;5.468;2023-06-24T08:50:03;2.53;;;1.80;;
53666;SDS011;39568;51.026;5.468;2023-06-24T08:52:35;1.65;;;1.55;;
53666;SDS011;39568;51.026;5.468;2023-06-24T08:55:14;1.73;;;1.63;;
53666;SDS011;39568;51.026;5.468;2023-06-24T08:57:42;2.50;;;1.63;;
53666;SDS011;39568;51.026;5.468;2023-06-24T09:00:10;3.80;;;1.67;;
53666;SDS011;39568;51.026;5.468;2023-06-24T09:02:38;1.80;;;1.70;;
53666;SDS011;39568;51.026;5.468;2023-06-24T09:05:05;3.20;;;1.40;;
53666;SDS011;39568;51.026;5.468;2023-06-24T09:07:32;1.75;;;1.65;;
53666;SDS011;39568;51.026;5.468;2023-06-24T09:10:01;3.05;;;1.67;;
53666;SDS011;39568;51.026;5.468;2023-06-24T09:12:31;1.58;;;1.23;;
53666;SDS011;39568;51.026;5.468;2023-06-24T09:14:58;9.70;;;1.65;;
53666;SDS011;39568;51.026;5.468;2023-06-24T09:17:25;2.25;;;2.05;;
53666;SDS011;39568;51.026;5.468;2023-06-24T09:19:52;3.65;;;1.98;;
53666;SDS011;39568;51.026;5.468;2023-06-24T09:22:19;12.10;;;2.75;;
53666;SDS011;39568;51.026;5.468;2023-06-24T09:24:46;8.50;;;2.15;;
53666;SDS011;39568;51.026;5.468;2023-06-24T09:27:17;3.25;;;2.22;;
53666;SDS011;39568;51.026;5.468;2023-06-24T09:29:47;1.58;;;1.45;;
53666;SDS011;39568;51.026;5.468;2023-06-24T09:32:13;6.72;;;2.53;;
53666;SDS011;39568;51.026;5.468;2023-06-24T09:34:40;18.25;;;2.80;;
53666;SDS011;39568;51.026;5.468;2023-06-24T09:37:09;11.07;;;2.35;;
53666;SDS011;39568;51.026;5.468;2023-06-24T09:39:47;3.05;;;2.25;;
53666;SDS011;39568;51.026;5.468;2023-06-24T09:42:13;3.67;;;1.75;;
53666;SDS011;39568;51.026;5.468;2023-06-24T09:44:52;1.73;;;1.63;;
53666;SDS011;39568;51.026;5.468;2023-06-24T09:47:20;4.80;;;1.40;;
53666;SDS011;39568;51.026;5.468;2023-06-24T09:49:53;2.03;;;1.38;;
53666;SDS011;39568;51.026;5.468;2023-06-24T09:52:21;2.17;;;1.83;;
53666;SDS011;39568;51.026;5.468;2023-06-24T09:54:50;1.60;;;1.50;;
53666;SDS011;39568;51.026;5.468;2023-06-24T09:57:20;0.88;;;0.88;;
53666;SDS011;39568;51.026;5.468;2023-06-24T09:59:52;2.15;;;2.05;;
53666;SDS011;39568;51.026;5.468;2023-06-24T10:02:21;1.45;;;1.35;;
53666;SDS011;39568;51.026;5.468;2023-06-24T10:04:49;1.27;;;1.10;;
53666;SDS011;39568;51.026;5.468;2023-06-24T10:07:17;2.88;;;1.52;;
53666;SDS011;39568;51.026;5.468;2023-06-24T10:09:44;1.40;;;1.30;;
53666;SDS011;39568;51.026;5.468;2023-06-24T10:12:14;2.17;;;1.85;;
53666;SDS011;39568;51.026;5.468;2023-06-24T10:14:42;2.03;;;1.02;;
53666;SDS011;39568;51.026;5.468;2023-06-24T10:17:09;1.48;;;1.45;;
53666;SDS011;39568;51.026;5.468;2023-06-24T10:19:38;3.28;;;1.55;;
53666;SDS011;39568;51.026;5.468;2023-06-24T10:22:07;2.03;;;1.65;;
53666;SDS011;39568;51.026;5.468;2023-06-24T10:24:36;1.85;;;1.75;;
53666;SDS011;39568;51.026;5.468;2023-06-24T10:27:05;1.73;;;1.63;;
53666;SDS011;39568;51.026;5.468;2023-06-24T10:29:35;4.38;;;1.33;;
53666;SDS011;39568;51.026;5.468;2023-06-24T10:32:04;2.60;;;1.73;;
53666;SDS011;39568;51.026;5.468;2023-06-24T10:34:39;1.33;;;1.33;;
53666;SDS011;39568;51.026;5.468;2023-06-24T10:37:11;2.33;;;1.42;;
53666;SDS011;39568;51.026;5.468;2023-06-24T10:39:49;1.13;;;1.02;;
53666;SDS011;39568;51.026;5.468;2023-06-24T10:42:30;1.40;;;1.30;;
53666;SDS011;39568;51.026;5.468;2023-06-24T10:44:59;1.67;;;1.58;;
53666;SDS011;39568;51.026;5.468;2023-06-24T10:47:29;1.67;;;1.58;;
53666;SDS011;39568;51.026;5.468;2023-06-24T10:49:56;1.83;;;1.70;;
53666;SDS011;39568;51.026;5.468;2023-06-24T10:52:26;6.38;;;1.60;;
53666;SDS011;39568;51.026;5.468;2023-06-24T10:54:53;2.10;;;2.00;;
53666;SDS011;39568;51.026;5.468;2023-06-24T10:57:21;2.15;;;1.95;;
53666;SDS011;39568;51.026;5.468;2023-06-24T10:59:49;4.07;;;1.52;;
53666;SDS011;39568;51.026;5.468;2023-06-24T11:02:16;1.45;;;1.35;;
53666;SDS011;39568;51.026;5.468;2023-06-24T11:04:46;3.60;;;1.90;;
53666;SDS011;39568;51.026;5.468;2023-06-24T11:07:17;1.35;;;1.25;;
53666;SDS011;39568;51.026;5.468;2023-06-24T11:09:48;2.50;;;1.50;;
53666;SDS011;39568;51.026;5.468;2023-06-24T11:12:15;1.40;;;1.30;;
53666;SDS011;39568;51.026;5.468;2023-06-24T11:14:42;1.67;;;1.58;;
53666;SDS011;39568;51.026;5.468;2023-06-24T11:17:09;2.25;;;1.60;;
53666;SDS011;39568;51.026;5.468;2023-06-24T11:19:38;2.10;;;1.05;;
53666;SDS011;39568;51.026;5.468;2023-06-24T11:22:07;1.13;;;1.13;;
53666;SDS011;39568;51.026;5.468;2023-06-24T11:24:35;1.20;;;1.00;;
53666;SDS011;39568;51.026;5.468;2023-06-24T11:27:04;0.90;;;0.90;;
53666;SDS011;39568;51.026;5.468;2023-06-24T11:29:31;11.38;;;1.40;;
53666;SDS011;39568;51.026;5.468;2023-06-24T11:32:00;2.88;;;1.17;;
53666;SDS011;39568;51.026;5.468;2023-06-24T11:34:27;1.02;;;1.00;;
53666;SDS011;39568;51.026;5.468;2023-06-24T11:36:54;4.35;;;1.10;;
53666;SDS011;39568;51.026;5.468;2023-06-24T11:39:24;0.60;;;0.60;;
53666;SDS011;39568;51.026;5.468;2023-06-24T11:41:51;1.02;;;1.02;;
53666;SDS011;39568;51.026;5.468;2023-06-24T11:44:19;2.88;;;1.30;;
53666;SDS011;39568;51.026;5.468;2023-06-24T11:46:47;1.55;;;1.27;;
53666;SDS011;39568;51.026;5.468;2023-06-24T11:49:17;0.98;;;0.98;;
53666;SDS011;39568;51.026;5.468;2023-06-24T11:51:46;1.17;;;1.08;;
53666;SDS011;39568;51.026;5.468;2023-06-24T11:54:18;1.27;;;1.17;;
53666;SDS011;39568;51.026;5.468;2023-06-24T11:56:51;1.38;;;1.38;;
53666;SDS011;39568;51.026;5.468;2023-06-24T11:59:19;1.60;;;1.50;;
53666;SDS011;39568;51.026;5.468;2023-06-24T12:04:20;1.40;;;1.30;;
53666;SDS011;39568;51.026;5.468;2023-06-24T12:06:48;1.67;;;1.15;;
53666;SDS011;39568;51.026;5.468;2023-06-24T12:09:15;1.05;;;0.98;;
53666;SDS011;39568;51.026;5.468;2023-06-24T12:11:42;1.27;;;1.17;;
53666;SDS011;39568;51.026;5.468;2023-06-24T12:14:11;3.47;;;1.40;;
53666;SDS011;39568;51.026;5.468;2023-06-24T12:16:40;1.52;;;0.93;;
53666;SDS011;39568;51.026;5.468;2023-06-24T12:19:06;1.38;;;1.30;;
53666;SDS011;39568;51.026;5.468;2023-06-24T12:21:33;1.02;;;1.02;;
53666;SDS011;39568;51.026;5.468;2023-06-24T12:24:00;1.05;;;1.05;;
53666;SDS011;39568;51.026;5.468;2023-06-24T12:26:27;1.92;;;1.38;;
53666;SDS011;39568;51.026;5.468;2023-06-24T12:28:54;3.20;;;1.50;;
53666;SDS011;39568;51.026;5.468;2023-06-24T12:31:23;1.35;;;1.30;;
53666;SDS011;39568;51.026;5.468;2023-06-24T12:33:51;1.70;;;1.60;;
53666;SDS011;39568;51.026;5.468;2023-06-24T12:36:18;1.73;;;1.20;;
53666;SDS011;39568;51.026;5.468;2023-06-24T12:38:45;1.58;;;1.48;;
53666;SDS011;39568;51.026;5.468;2023-06-24T12:41:11;2.30;;;1.38;;
53666;SDS011;39568;51.026;5.468;2023-06-24T12:43:38;1.50;;;1.40;;
53666;SDS011;39568;51.026;5.468;2023-06-24T12:46:06;1.02;;;1.00;;
53666;SDS011;39568;51.026;5.468;2023-06-24T12:48:34;1.60;;;1.30;;
53666;SDS011;39568;51.026;5.468;2023-06-24T12:51:01;1.88;;;1.75;;
53666;SDS011;39568;51.026;5.468;2023-06-24T12:53:28;1.33;;;1.33;;
53666;SDS011;39568;51.026;5.468;2023-06-24T12:55:56;1.50;;;1.40;;
53666;SDS011;39568;51.026;5.468;2023-06-24T12:58:24;1.20;;;1.10;;
53666;SDS011;39568;51.026;5.468;2023-06-24T13:00:51;7.18;;;1.45;;
53666;SDS011;39568;51.026;5.468;2023-06-24T13:03:21;6.75;;;1.58;;
53666;SDS011;39568;51.026;5.468;2023-06-24T13:05:49;3.25;;;1.20;;
53666;SDS011;39568;51.026;5.468;2023-06-24T13:08:16;4.22;;;1.20;;
53666;SDS011;39568;51.026;5.468;2023-06-24T13:10:42;1.45;;;1.35;;
53666;SDS011;39568;51.026;5.468;2023-06-24T13:13:11;1.60;;;1.50;;
53666;SDS011;39568;51.026;5.468;2023-06-24T13:15:39;1.67;;;1.58;;
53666;SDS011;39568;51.026;5.468;2023-06-24T13:18:05;0.85;;;0.85;;
53666;SDS011;39568;51.026;5.468;2023-06-24T13:20:32;1.27;;;0.93;;
53666;SDS011;39568;51.026;5.468;2023-06-24T13:23:07;1.20;;;1.20;;
53666;SDS011;39568;51.026;5.468;2023-06-24T13:25:34;1.40;;;1.30;;
53666;SDS011;39568;51.026;5.468;2023-06-24T13:28:05;1.67;;;1.33;;
53666;SDS011;39568;51.026;5.468;2023-06-24T13:30:32;1.40;;;1.30;;
53666;SDS011;39568;51.026;5.468;2023-06-24T13:32:59;1.58;;;1.17;;
53666;SDS011;39568;51.026;5.468;2023-06-24T13:35:26;1.00;;;1.00;;
53666;SDS011;39568;51.026;5.468;2023-06-24T13:37:55;1.58;;;1.48;;
53666;SDS011;39568;51.026;5.468;2023-06-24T13:40:25;1.42;;;1.05;;
53666;SDS011;39568;51.026;5.468;2023-06-24T13:42:52;1.17;;;1.17;;
53666;SDS011;39568;51.026;5.468;2023-06-24T13:45:19;4.20;;;1.40;;
53666;SDS011;39568;51.026;5.468;2023-06-24T13:47:46;1.30;;;1.20;;
53666;SDS011;39568;51.026;5.468;2023-06-24T13:50:14;1.23;;;1.23;;
53666;SDS011;39568;51.026;5.468;2023-06-24T13:52:46;1.45;;;1.35;;
53666;SDS011;39568;51.026;5.468;2023-06-24T13:55:13;1.20;;;1.10;;
53666;SDS011;39568;51.026;5.468;2023-06-24T13:57:41;1.55;;;1.45;;
53666;SDS011;39568;51.026;5.468;2023-06-24T14:00:08;1.02;;;1.02;;
53666;SDS011;39568;51.026;5.468;2023-06-24T14:02:36;2.13;;;1.40;;
53666;SDS011;39568;51.026;5.468;2023-06-24T14:05:03;1.55;;;1.45;;
53666;SDS011;39568;51.026;5.468;2023-06-24T14:07:31;1.38;;;1.33;;
53666;SDS011;39568;51.026;5.468;2023-06-24T14:09:58;1.80;;;1.20;;
53666;SDS011;39568;51.026;5.468;2023-06-24T14:12:27;2.58;;;1.30;;
53666;SDS011;39568;51.026;5.468;2023-06-24T14:14:56;1.33;;;1.17;;
53666;SDS011;39568;51.026;5.468;2023-06-24T14:17:22;1.48;;;1.38;;
53666;SDS011;39568;51.026;5.468;2023-06-24T14:19:52;2.47;;;1.48;;
53666;SDS011;39568;51.026;5.468;2023-06-24T14:22:18;1.10;;;1.05;;
53666;SDS011;39568;51.026;5.468;2023-06-24T14:24:51;1.35;;;1.25;;
53666;SDS011;39568;51.026;5.468;2023-06-24T14:27:18;1.05;;;1.05;;
53666;SDS011;39568;51.026;5.468;2023-06-24T14:29:48;1.52;;;1.42;;
53666;SDS011;39568;51.026;5.468;2023-06-24T14:32:18;1.80;;;1.70;;
53666;SDS011;39568;51.026;5.468;2023-06-24T14:34:53;1.40;;;1.30;;
53666;SDS011;39568;51.026;5.468;2023-06-24T14:37:20;4.43;;;1.10;;
53666;SDS011;39568;51.026;5.468;2023-06-24T14:39:48;1.50;;;1.40;;
53666;SDS011;39568;51.026;5.468;2023-06-24T14:42:18;0.90;;;0.90;;
53666;SDS011;39568;51.026;5.468;2023-06-24T14:44:44;1.13;;;1.08;;
53666;SDS011;39568;51.026;5.468;2023-06-24T14:47:11;1.35;;;1.25;;
53666;SDS011;39568;51.026;5.468;2023-06-24T14:49:39;1.13;;;1.10;;
53666;SDS011;39568;51.026;5.468;2023-06-24T14:52:09;1.58;;;1.48;;
53666;SDS011;39568;51.026;5.468;2023-06-24T14:54:36;2.03;;;1.55;;
53666;SDS011;39568;51.026;5.468;2023-06-24T14:57:04;2.13;;;1.70;;
53666;SDS011;39568;51.026;5.468;2023-06-24T14:59:33;1.30;;;1.30;;
53666;SDS011;39568;51.026;5.468;2023-06-24T15:02:06;2.42;;;1.10;;